createdAt,value
2019-02-07T00:00:51.869Z,9.10
2019-02-07T00:03:20.971Z,7.80
2019-02-07T00:05:50.155Z,9.00
2019-02-07T00:08:19.877Z,8.50
2019-02-07T00:10:49.232Z,8.10
2019-02-07T00:13:18.906Z,7.80
2019-02-07T00:15:50.190Z,8.90
2019-02-07T00:18:21.043Z,9.20
2019-02-07T00:20:51.244Z,8.70
2019-02-07T00:23:21.650Z,8.90
2019-02-07T00:25:51.938Z,8.20
2019-02-07T00:28:21.870Z,8.30
2019-02-07T00:30:52.247Z,9.00
2019-02-07T00:33:23.779Z,9.00
2019-02-07T00:35:57.128Z,8.30
2019-02-07T00:38:28.624Z,9.00
2019-02-07T00:40:59.052Z,8.70
2019-02-07T00:43:29.074Z,8.50
2019-02-07T00:45:58.873Z,7.50
2019-02-07T00:48:29.067Z,8.60
2019-02-07T00:50:59.055Z,8.60
2019-02-07T00:53:29.235Z,8.20
2019-02-07T00:55:58.692Z,8.70
2019-02-07T00:58:28.002Z,8.60
2019-02-07T01:00:57.728Z,9.40
2019-02-07T01:03:27.405Z,9.60
2019-02-07T01:05:56.575Z,9.40
2019-02-07T01:08:25.693Z,9.60
2019-02-07T01:10:54.449Z,10.30
2019-02-07T01:13:23.178Z,10.10
2019-02-07T01:15:53.862Z,9.70
2019-02-07T01:18:22.524Z,10.20
2019-02-07T01:20:51.396Z,10.50
2019-02-07T01:23:22.294Z,10.70
2019-02-07T01:25:52.252Z,10.70
2019-02-07T01:28:25.051Z,10.90
2019-02-07T01:30:56.318Z,11.80
2019-02-07T01:33:25.574Z,11.90
2019-02-07T01:35:54.865Z,12.40
2019-02-07T01:38:24.361Z,12.70
2019-02-07T01:40:53.633Z,13.00
2019-02-07T01:43:22.943Z,14.50
2019-02-07T01:45:57.648Z,14.50
2019-02-07T01:48:27.700Z,15.70
2019-02-07T01:50:57.195Z,16.40
2019-02-07T01:53:26.345Z,16.10
2019-02-07T01:55:56.567Z,16.30
2019-02-07T01:58:26.127Z,15.60
2019-02-07T02:00:56.582Z,15.80
2019-02-07T02:03:27.956Z,15.80
2019-02-07T02:06:03.168Z,16.30
2019-02-07T02:08:32.072Z,16.50
2019-02-07T02:11:02.485Z,18.00
2019-02-07T02:13:31.997Z,19.20
2019-02-07T02:16:01.267Z,19.00
2019-02-07T02:18:32.897Z,19.60
2019-02-07T02:21:02.090Z,18.20
2019-02-07T02:23:32.276Z,20.70
2019-02-07T02:26:05.872Z,22.10
2019-02-07T02:28:35.936Z,22.00
2019-02-07T02:31:06.434Z,23.40
2019-02-07T02:33:36.257Z,24.40
2019-02-07T02:36:05.447Z,24.40
2019-02-07T02:38:35.683Z,24.40
2019-02-07T02:41:04.730Z,25.10
2019-02-07T02:43:34.176Z,25.40
2019-02-07T02:46:13.460Z,26.40
2019-02-07T02:48:45.887Z,26.50
2019-02-07T02:51:15.391Z,27.60
2019-02-07T02:53:45.059Z,27.60
2019-02-07T02:56:14.539Z,29.30
2019-02-07T02:58:46.328Z,28.90
2019-02-07T03:01:32.537Z,30.00
2019-02-07T03:04:07.731Z,31.40
2019-02-07T03:06:44.489Z,31.00
2019-02-07T03:09:21.243Z,31.10
2019-02-07T03:12:08.404Z,31.90
2019-02-07T03:14:41.388Z,32.30
2019-02-07T03:17:12.108Z,32.40
2019-02-07T03:19:54.250Z,33.20
2019-02-07T03:22:28.272Z,33.10
2019-02-07T03:25:09.993Z,33.50
2019-02-07T03:27:56.633Z,33.20
2019-02-07T03:30:46.050Z,33.80
2019-02-07T03:33:20.892Z,34.00
2019-02-07T03:35:54.906Z,36.80
2019-02-07T03:38:26.457Z,36.10
2019-02-07T03:41:02.808Z,35.60
2019-02-07T03:43:36.417Z,37.10
2019-02-07T03:46:13.019Z,36.80
2019-02-07T03:48:48.835Z,37.10
2019-02-07T03:51:19.967Z,38.20
2019-02-07T03:54:02.269Z,39.70
2019-02-07T03:56:45.588Z,40.60
2019-02-07T03:59:33.935Z,43.00
2019-02-07T04:02:20.878Z,45.50
2019-02-07T04:04:54.280Z,48.10
2019-02-07T04:07:30.812Z,49.70
2019-02-07T04:10:09.688Z,50.80
2019-02-07T04:12:52.144Z,51.80
2019-02-07T04:15:23.727Z,53.20
2019-02-07T04:17:55.790Z,54.10
2019-02-07T04:20:38.561Z,53.80
2019-02-07T04:23:27.565Z,53.70
2019-02-07T04:26:11.256Z,53.70
2019-02-07T04:28:48.485Z,52.30
2019-02-07T04:31:22.326Z,53.40
2019-02-07T04:34:04.690Z,52.90
2019-02-07T04:36:53.655Z,52.80
2019-02-07T04:39:24.486Z,52.60
2019-02-07T04:42:01.690Z,51.80
2019-02-07T04:44:32.470Z,51.20
2019-02-07T04:47:06.390Z,52.10
2019-02-07T04:49:43.180Z,51.60
2019-02-07T04:52:25.755Z,51.70
2019-02-07T04:54:56.058Z,52.20
2019-02-07T04:57:35.835Z,53.10
2019-02-07T05:00:15.621Z,53.10
2019-02-07T05:02:54.860Z,53.10
2019-02-07T05:05:28.335Z,53.00
2019-02-07T05:08:02.044Z,52.80
2019-02-07T05:10:33.160Z,52.30
2019-02-07T05:13:07.752Z,51.80
2019-02-07T05:15:55.387Z,51.00
2019-02-07T05:18:32.625Z,50.80
2019-02-07T05:21:06.720Z,49.60
2019-02-07T05:23:37.464Z,51.30
2019-02-07T05:26:14.453Z,50.60
2019-02-07T05:28:57.433Z,50.50
2019-02-07T05:31:44.432Z,49.90
2019-02-07T05:34:33.661Z,49.40
2019-02-07T05:37:04.501Z,47.70
2019-02-07T05:39:42.115Z,46.40
2019-02-07T05:42:15.233Z,44.00
2019-02-07T05:45:00.547Z,42.90
2019-02-07T05:47:33.773Z,41.60
2019-02-07T05:50:22.444Z,39.60
2019-02-07T05:52:59.657Z,39.00
2019-02-07T05:55:43.842Z,38.00
2019-02-07T05:58:14.785Z,36.70
2019-02-07T06:00:46.608Z,35.70
2019-02-07T06:03:26.606Z,33.80
2019-02-07T06:05:57.184Z,33.10
2019-02-07T06:08:28.100Z,32.60
2019-02-07T06:11:05.684Z,32.00
2019-02-07T06:13:39.773Z,31.30
2019-02-07T06:16:10.537Z,30.00
2019-02-07T06:18:57.328Z,29.70
2019-02-07T06:21:28.817Z,28.00
2019-02-07T06:24:14.075Z,27.30
2019-02-07T06:26:50.176Z,26.80
2019-02-07T06:29:23.081Z,26.40
2019-02-07T06:32:02.726Z,26.70
2019-02-07T06:34:33.462Z,25.90
2019-02-07T06:37:20.732Z,25.50
2019-02-07T06:40:08.163Z,24.70
2019-02-07T06:42:41.456Z,24.10
2019-02-07T06:45:16.309Z,23.90
2019-02-07T06:48:05.529Z,24.10
2019-02-07T06:50:45.691Z,23.70
2019-02-07T06:53:25.666Z,23.30
2019-02-07T06:55:59.284Z,22.80
2019-02-07T06:58:39.486Z,22.20
2019-02-07T07:01:12.797Z,22.00
2019-02-07T07:03:58.871Z,21.80
2019-02-07T07:06:29.279Z,21.80
2019-02-07T07:09:02.122Z,21.90
2019-02-07T07:11:47.415Z,21.70
2019-02-07T07:14:29.722Z,22.80
2019-02-07T07:17:00.664Z,22.30
2019-02-07T07:19:31.781Z,21.90
2019-02-07T07:22:21.152Z,22.30
2019-02-07T07:25:08.564Z,22.10
2019-02-07T07:27:39.574Z,21.70
2019-02-07T07:30:18.731Z,21.50
2019-02-07T07:32:52.426Z,21.60
2019-02-07T07:35:35.731Z,21.70
2019-02-07T07:38:16.322Z,21.60
2019-02-07T07:40:47.381Z,21.90
2019-02-07T07:43:35.215Z,21.20
2019-02-07T07:46:05.876Z,21.90
2019-02-07T07:48:51.618Z,21.90
2019-02-07T07:51:22.594Z,22.00
2019-02-07T07:54:08.539Z,22.20
2019-02-07T07:56:54.075Z,22.40
2019-02-07T07:59:42.555Z,22.30
2019-02-07T08:02:20.039Z,21.90
2019-02-07T08:04:51.324Z,22.50
2019-02-07T08:07:22.557Z,22.40
2019-02-07T08:09:56.468Z,21.10
2019-02-07T08:12:42.669Z,22.10
2019-02-07T08:15:20.648Z,22.70
2019-02-07T08:17:54.166Z,22.10
2019-02-07T08:20:42.186Z,22.20
2019-02-07T08:23:19.110Z,20.60
2019-02-07T08:25:52.770Z,21.10
2019-02-07T08:28:40.593Z,21.80
2019-02-07T08:31:18.096Z,21.30
2019-02-07T08:33:48.389Z,20.90
2019-02-07T08:36:18.695Z,21.20
2019-02-07T08:39:03.991Z,21.40
2019-02-07T08:41:43.552Z,21.00
2019-02-07T08:44:30.170Z,20.90
2019-02-07T08:47:10.655Z,21.30
2019-02-07T08:49:53.382Z,20.90
2019-02-07T08:52:40.492Z,20.80
2019-02-07T08:55:11.935Z,21.00
2019-02-07T08:57:42.930Z,20.40
2019-02-07T09:00:30.195Z,20.50
2019-02-07T09:03:10.513Z,20.60
2019-02-07T09:05:57.645Z,20.50
2019-02-07T09:08:28.383Z,20.40
2019-02-07T09:11:05.588Z,20.10
2019-02-07T09:13:55.225Z,19.90
2019-02-07T09:16:35.074Z,20.40
2019-02-07T09:19:14.990Z,19.90
2019-02-07T09:22:01.580Z,20.10
2019-02-07T09:24:32.639Z,20.20
2019-02-07T09:27:03.085Z,19.10
2019-02-07T09:29:34.229Z,18.30
2019-02-07T09:32:29.115Z,18.60
2019-02-07T09:34:59.911Z,18.40
2019-02-07T09:37:46.060Z,17.20
2019-02-07T09:40:35.935Z,18.60
2019-02-07T09:43:15.464Z,18.50
2019-02-07T09:46:03.600Z,18.90
2019-02-07T09:48:37.261Z,19.20
2019-02-07T09:51:11.113Z,19.00
2019-02-07T09:53:48.907Z,18.90
2019-02-07T09:56:19.494Z,18.90
2019-02-07T09:59:03.424Z,19.00
2019-02-07T10:01:34.481Z,18.90
2019-02-07T10:04:14.805Z,17.90
2019-02-07T10:07:03.883Z,18.60
2019-02-07T10:09:38.270Z,18.80
2019-02-07T10:12:12.780Z,18.70
2019-02-07T10:14:43.787Z,18.90
2019-02-07T10:17:29.883Z,18.60
2019-02-07T10:20:01.015Z,18.20
2019-02-07T10:22:32.289Z,17.80
2019-02-07T10:25:12.345Z,18.20
2019-02-07T10:27:43.722Z,18.10
2019-02-07T10:30:17.104Z,18.20
2019-02-07T10:32:51.614Z,18.20
2019-02-07T10:35:34.860Z,18.30
2019-02-07T10:38:22.687Z,18.30
2019-02-07T10:40:59.895Z,18.10
2019-02-07T10:43:39.746Z,18.40
2019-02-07T10:46:27.203Z,18.60
2019-02-07T10:48:57.456Z,18.60
2019-02-07T10:51:30.923Z,18.60
2019-02-07T10:54:17.282Z,17.50
2019-02-07T10:57:03.864Z,18.70
2019-02-07T10:59:40.620Z,18.90
2019-02-07T11:02:11.734Z,18.60
2019-02-07T11:04:59.020Z,18.30
2019-02-07T11:07:36.198Z,17.90
2019-02-07T11:10:09.870Z,18.20
2019-02-07T11:12:40.708Z,18.40
2019-02-07T11:15:17.637Z,18.60
2019-02-07T11:18:07.673Z,19.00
2019-02-07T11:20:44.751Z,18.80
2019-02-07T11:23:28.899Z,19.10
2019-02-07T11:26:05.673Z,19.10
2019-02-07T11:28:36.442Z,19.10
2019-02-07T11:31:07.264Z,19.10
2019-02-07T11:33:44.027Z,20.20
2019-02-07T11:36:20.707Z,19.30
2019-02-07T11:39:08.477Z,19.80
2019-02-07T11:41:48.450Z,20.20
2019-02-07T11:44:19.351Z,20.30
2019-02-07T11:46:51.649Z,19.80
2019-02-07T11:49:31.353Z,19.30
2019-02-07T11:52:08.504Z,19.70
2019-02-07T11:54:40.080Z,19.70
2019-02-07T11:57:26.153Z,19.30
2019-02-07T12:00:14.249Z,19.40
2019-02-07T12:02:56.867Z,19.00
2019-02-07T12:05:29.271Z,18.90
2019-02-07T12:08:06.263Z,19.10
2019-02-07T12:10:39.783Z,19.00
2019-02-07T12:13:10.515Z,19.10
2019-02-07T12:15:43.950Z,18.90
2019-02-07T12:18:15.149Z,19.20
2019-02-07T12:21:01.729Z,18.50
2019-02-07T12:23:41.543Z,18.30
2019-02-07T12:26:21.222Z,18.10
2019-02-07T12:29:10.597Z,18.20
2019-02-07T12:31:41.440Z,18.20
2019-02-07T12:34:19.523Z,18.10
2019-02-07T12:36:50.612Z,18.10
2019-02-07T12:39:40.343Z,18.30
2019-02-07T12:42:29.917Z,18.10
2019-02-07T12:45:04.177Z,18.30
2019-02-07T12:47:37.817Z,18.30
2019-02-07T12:50:23.246Z,18.50
2019-02-07T12:52:57.500Z,18.20
2019-02-07T12:55:37.584Z,17.90
2019-02-07T12:58:12.442Z,18.20
2019-02-07T13:01:01.292Z,17.70
2019-02-07T13:03:40.730Z,17.70
2019-02-07T13:06:12.075Z,17.90
2019-02-07T13:08:49.795Z,17.60
2019-02-07T13:11:21.203Z,17.70
2019-02-07T13:14:08.595Z,17.70
2019-02-07T13:16:39.347Z,17.60
2019-02-07T13:19:26.702Z,17.70
2019-02-07T13:21:57.454Z,17.70
2019-02-07T13:24:31.623Z,17.60
2019-02-07T13:27:02.649Z,17.40
2019-02-07T13:29:36.995Z,18.10
2019-02-07T13:32:24.093Z,17.40
2019-02-07T13:35:11.571Z,17.10
2019-02-07T13:37:59.366Z,17.40
2019-02-07T13:40:46.901Z,17.50
2019-02-07T13:43:32.504Z,17.00
2019-02-07T13:46:11.854Z,16.40
2019-02-07T13:48:42.729Z,17.00
2019-02-07T13:51:16.352Z,17.00
2019-02-07T13:53:47.256Z,17.10
2019-02-07T13:56:35.170Z,16.30
2019-02-07T13:59:05.945Z,16.90
2019-02-07T14:01:55.663Z,16.70
2019-02-07T14:04:32.787Z,17.00
2019-02-07T14:07:19.815Z,16.80
2019-02-07T14:09:50.613Z,16.60
2019-02-07T14:12:27.331Z,16.70
2019-02-07T14:14:58.408Z,17.00
2019-02-07T14:17:38.266Z,17.20
2019-02-07T14:20:10.886Z,16.50
2019-02-07T14:22:41.759Z,16.70
2019-02-07T14:25:28.351Z,16.60
2019-02-07T14:28:11.228Z,16.50
2019-02-07T14:30:42.277Z,16.50
2019-02-07T14:33:31.222Z,16.70
2019-02-07T14:36:07.295Z,16.60
2019-02-07T14:38:55.320Z,16.30
2019-02-07T14:41:29.298Z,16.10
2019-02-07T14:44:03.074Z,16.30
2019-02-07T14:46:33.957Z,16.20
2019-02-07T14:49:03.303Z,15.80
2019-02-07T14:51:33.485Z,16.40
2019-02-07T14:54:02.735Z,15.80
2019-02-07T14:56:32.623Z,15.10
2019-02-07T14:59:01.868Z,15.40
2019-02-07T15:01:31.207Z,15.20
2019-02-07T15:04:00.673Z,15.30
2019-02-07T15:06:30.143Z,15.40
2019-02-07T15:08:59.715Z,15.50
2019-02-07T15:11:29.445Z,15.50
2019-02-07T15:13:58.707Z,15.30
2019-02-07T15:16:27.509Z,15.80
2019-02-07T15:18:56.260Z,15.90
2019-02-07T15:21:25.108Z,15.60
2019-02-07T15:23:53.708Z,16.20
2019-02-07T15:26:22.837Z,16.50
2019-02-07T15:28:53.381Z,16.00
2019-02-07T15:31:22.702Z,16.20
2019-02-07T15:33:53.093Z,14.70
2019-02-07T15:36:22.339Z,15.80
2019-02-07T15:38:51.648Z,15.60
2019-02-07T15:41:22.545Z,15.70
2019-02-07T15:43:51.714Z,16.10
2019-02-07T15:46:21.961Z,16.40
2019-02-07T15:48:51.178Z,16.10
2019-02-07T15:51:20.596Z,16.30
2019-02-07T15:53:49.917Z,15.80
2019-02-07T15:56:19.494Z,15.50
2019-02-07T15:58:50.375Z,15.20
2019-02-07T16:01:21.793Z,14.80
2019-02-07T16:03:52.092Z,15.60
2019-02-07T16:06:21.348Z,14.70
2019-02-07T16:08:50.569Z,14.60
2019-02-07T16:11:19.989Z,14.50
2019-02-07T16:13:50.322Z,13.70
2019-02-07T16:16:19.746Z,14.20
2019-02-07T16:18:49.013Z,14.00
2019-02-07T16:21:18.527Z,13.10
2019-02-07T16:23:47.992Z,12.90
2019-02-07T16:26:17.427Z,13.10
2019-02-07T16:28:46.802Z,12.40
2019-02-07T16:31:16.092Z,13.10
2019-02-07T16:33:45.398Z,12.40
2019-02-07T16:36:14.937Z,12.50
2019-02-07T16:38:44.117Z,13.90
2019-02-07T16:41:13.293Z,12.00
2019-02-07T16:43:42.774Z,12.00
2019-02-07T16:46:11.952Z,10.50
2019-02-07T16:48:41.858Z,9.20
2019-02-07T16:51:10.492Z,7.10
2019-02-07T16:53:39.673Z,5.20
2019-02-07T16:56:08.767Z,5.60
2019-02-07T16:58:37.957Z,4.70
2019-02-07T17:01:08.848Z,1.80
2019-02-07T17:03:39.008Z,1.40
2019-02-07T17:06:08.218Z,1.00
2019-02-07T17:08:37.623Z,1.00
2019-02-07T17:11:07.352Z,1.00
2019-02-07T17:13:36.855Z,1.00
2019-02-07T17:16:06.761Z,1.00
2019-02-07T17:18:36.108Z,1.00
2019-02-07T17:21:12.468Z,1.00
2019-02-07T17:23:37.038Z,1.00
2019-02-07T17:26:06.695Z,1.00
2019-02-07T17:28:36.010Z,1.00
2019-02-07T17:31:05.153Z,1.00
2019-02-07T17:33:34.410Z,1.00
2019-02-07T17:36:03.604Z,1.00
2019-02-07T17:38:33.134Z,1.00
2019-02-07T17:41:02.522Z,1.00
2019-02-07T17:43:31.804Z,1.00
2019-02-07T17:46:00.895Z,1.00
2019-02-07T17:48:30.425Z,1.00
2019-02-07T17:50:59.865Z,1.00
2019-02-07T17:53:29.187Z,1.00
2019-02-07T17:55:58.564Z,1.00
2019-02-07T17:58:27.901Z,1.00
2019-02-07T18:01:01.425Z,1.00
2019-02-07T18:03:30.939Z,1.00
2019-02-07T18:06:00.090Z,1.00
2019-02-07T18:08:29.903Z,1.00
2019-02-07T18:10:59.744Z,1.00
2019-02-07T18:13:29.198Z,1.00
2019-02-07T18:15:58.052Z,1.00
2019-02-07T18:18:27.103Z,1.00
2019-02-07T18:20:56.845Z,1.00
2019-02-07T18:23:26.025Z,1.00
2019-02-07T18:25:55.313Z,1.00
2019-02-07T18:28:24.834Z,1.00
2019-02-07T18:30:53.722Z,1.00
2019-02-07T18:33:22.882Z,1.00
2019-02-07T18:35:52.304Z,1.00
2019-02-07T18:38:21.987Z,1.00
2019-02-07T18:40:52.382Z,1.00
2019-02-07T18:43:21.572Z,1.00
2019-02-07T18:45:50.881Z,1.00
2019-02-07T18:48:20.331Z,1.00
2019-02-07T18:50:50.577Z,1.00
2019-02-07T18:53:20.068Z,1.00
2019-02-07T18:55:48.816Z,1.00
2019-02-07T18:58:18.412Z,1.00
2019-02-07T19:00:47.339Z,1.00
2019-02-07T19:03:16.035Z,1.00
2019-02-07T19:05:46.000Z,1.00
2019-02-07T19:08:15.604Z,1.00
2019-02-07T19:10:44.925Z,1.00
2019-02-07T19:13:14.262Z,1.00
2019-02-07T19:15:47.830Z,1.00
2019-02-07T19:18:16.677Z,1.00
2019-02-07T19:20:46.299Z,1.00
2019-02-07T19:23:15.618Z,1.00
2019-02-07T19:25:44.770Z,1.00
2019-02-07T19:28:14.146Z,1.00
2019-02-07T19:30:43.550Z,1.00
2019-02-07T19:33:12.671Z,1.00
2019-02-07T19:35:42.062Z,1.00
2019-02-07T19:38:11.297Z,1.00
2019-02-07T19:40:40.709Z,1.00
2019-02-07T19:43:09.390Z,1.00
2019-02-07T19:45:38.157Z,1.00
2019-02-07T19:48:07.892Z,1.00
2019-02-07T19:50:37.157Z,1.00
2019-02-07T19:53:06.387Z,1.00
2019-02-07T19:55:36.058Z,1.00
2019-02-07T19:58:06.661Z,1.00
2019-02-07T20:00:36.164Z,1.00
2019-02-07T20:03:05.702Z,1.00
2019-02-07T20:05:34.862Z,1.00
2019-02-07T20:08:04.393Z,1.00
2019-02-07T20:10:34.031Z,1.00
2019-02-07T20:13:03.412Z,1.00
2019-02-07T20:15:41.332Z,1.00
2019-02-07T20:18:11.422Z,1.00
2019-02-07T20:20:41.028Z,1.00
2019-02-07T20:23:10.529Z,1.00
2019-02-07T20:25:39.957Z,1.00
2019-02-07T20:28:10.055Z,1.00
2019-02-07T20:30:41.249Z,1.00
2019-02-07T20:33:10.512Z,1.00
2019-02-07T20:35:40.326Z,1.00
2019-02-07T20:38:10.004Z,1.00
2019-02-07T20:40:39.841Z,1.00
2019-02-07T20:43:09.147Z,1.00
2019-02-07T20:45:38.683Z,1.00
2019-02-07T20:48:08.243Z,1.00
2019-02-07T20:50:37.661Z,1.00
2019-02-07T20:53:09.129Z,1.00
2019-02-07T20:55:38.666Z,1.00
2019-02-07T20:58:07.980Z,1.00
2019-02-07T21:00:40.394Z,1.00
2019-02-07T21:03:10.013Z,1.00
2019-02-07T21:05:39.191Z,1.00
2019-02-07T21:08:08.167Z,1.00
2019-02-07T21:10:38.988Z,1.00
2019-02-07T21:13:08.409Z,1.00
2019-02-07T21:15:37.324Z,1.00
2019-02-07T21:18:06.307Z,1.00
2019-02-07T21:20:36.747Z,1.00
2019-02-07T21:23:06.611Z,1.00
2019-02-07T21:25:47.532Z,1.00
2019-02-07T21:28:16.980Z,1.00
2019-02-07T21:30:46.522Z,1.00
2019-02-07T21:33:16.136Z,1.00
2019-02-07T21:35:45.662Z,1.00
2019-02-07T21:38:15.148Z,1.00
2019-02-07T21:40:44.394Z,1.00
2019-02-07T21:43:14.157Z,1.00
2019-02-07T21:45:43.700Z,1.00
2019-02-07T21:48:12.720Z,1.00
2019-02-07T21:50:41.984Z,1.00
2019-02-07T21:53:11.452Z,1.00
2019-02-07T21:55:40.859Z,1.00
2019-02-07T21:58:10.359Z,1.00
2019-02-07T22:00:41.357Z,1.00
2019-02-07T22:03:11.649Z,1.00
2019-02-07T22:05:41.128Z,1.00
2019-02-07T22:08:10.319Z,1.00
2019-02-07T22:10:40.948Z,1.00
2019-02-07T22:13:11.092Z,1.00
2019-02-07T22:15:40.425Z,1.00
2019-02-07T22:18:09.774Z,1.00
2019-02-07T22:20:39.349Z,1.00
2019-02-07T22:23:08.437Z,1.00
2019-02-07T22:25:37.977Z,1.00
2019-02-07T22:28:08.044Z,1.00
2019-02-07T22:30:37.739Z,1.00
2019-02-07T22:33:07.887Z,1.00
2019-02-07T22:35:37.207Z,1.00
2019-02-07T22:38:06.891Z,1.00
2019-02-07T22:40:37.166Z,1.00
2019-02-07T22:43:07.167Z,1.00
2019-02-07T22:45:36.903Z,1.00
2019-02-07T22:48:06.861Z,1.00
2019-02-07T22:50:37.283Z,1.00
2019-02-07T22:53:07.108Z,1.00
2019-02-07T22:55:36.919Z,1.00
2019-02-07T22:58:06.606Z,1.00
2019-02-07T23:00:45.664Z,1.00
2019-02-07T23:03:21.943Z,1.00
2019-02-07T23:05:51.306Z,1.00
2019-02-07T23:08:20.593Z,1.00
2019-02-07T23:10:49.697Z,1.00
2019-02-07T23:13:18.817Z,1.00
2019-02-07T23:15:48.130Z,1.00
2019-02-07T23:18:17.772Z,1.00
2019-02-07T23:20:46.551Z,1.00
2019-02-07T23:23:15.274Z,1.00
2019-02-07T23:25:44.035Z,1.00
2019-02-07T23:28:13.230Z,1.00
2019-02-07T23:30:42.020Z,1.00
2019-02-07T23:33:11.185Z,1.00
2019-02-07T23:35:40.452Z,1.00
2019-02-07T23:38:09.669Z,1.00
2019-02-07T23:40:39.294Z,1.00
2019-02-07T23:43:08.682Z,1.00
2019-02-07T23:45:38.051Z,1.00
2019-02-07T23:48:07.427Z,1.00
2019-02-07T23:50:36.670Z,1.00
2019-02-07T23:53:14.096Z,1.00
2019-02-07T23:55:36.847Z,1.00
2019-02-07T23:58:06.093Z,1.00
